PRG weather

Václav Havel Airport Prague
Prague, Prague (capital city), Czechia

Public forecast

Using degrees Celsius for public forecast. Weather courtesy of forecast.io.

METAR (pilot weather report)

Retrieved 2018/11/14 10:30 UTC (27 minutes ago):

LKPR 141030Z 25009KT CAVOK 09/05 Q1030 NOSIG

TAF (pilot weather forecast)

Forecast is more than 12 hours old.

Retrieved 2018/11/13 00:21 UTC (1 day ago):

TAF LKPR 132300Z 1400/1506 23010KT CAVOK BECMG 1413/1415 VRB02KT BECMG 1502/1504 5000 BR NSC BECMG 1504/1506 2500 BR NSC